createdAt,value
2018-09-06T00:00:55.986Z,19.00
2018-09-06T00:01:55.951Z,17.70
2018-09-06T00:02:55.944Z,16.90
2018-09-06T00:03:55.929Z,17.40
2018-09-06T00:04:55.935Z,21.70
2018-09-06T00:05:55.944Z,17.80
2018-09-06T00:06:55.911Z,17.60
2018-09-06T00:07:55.888Z,16.70
2018-09-06T00:08:55.879Z,17.10
2018-09-06T00:09:55.867Z,17.90
2018-09-06T00:10:55.873Z,16.60
2018-09-06T00:11:55.871Z,20.10
2018-09-06T00:12:55.858Z,18.30
2018-09-06T00:13:55.821Z,18.20
2018-09-06T00:14:55.814Z,17.90
2018-09-06T00:15:55.809Z,17.00
2018-09-06T00:16:55.828Z,17.40
2018-09-06T00:17:55.786Z,18.10
2018-09-06T00:18:55.785Z,18.80
2018-09-06T00:19:55.765Z,20.20
2018-09-06T00:20:55.755Z,19.60
2018-09-06T00:21:55.763Z,17.90
2018-09-06T00:22:55.733Z,17.90
2018-09-06T00:23:55.740Z,18.40
2018-09-06T00:24:55.711Z,19.70
2018-09-06T00:25:55.696Z,19.30
2018-09-06T00:26:55.725Z,17.20
2018-09-06T00:27:55.683Z,17.30
2018-09-06T00:28:55.665Z,19.00
2018-09-06T00:29:55.663Z,19.70
2018-09-06T00:30:55.648Z,19.20
2018-09-06T00:31:55.643Z,18.00
2018-09-06T00:32:55.656Z,17.40
2018-09-06T00:33:55.620Z,19.00
2018-09-06T00:34:55.602Z,18.30
2018-09-06T00:35:55.600Z,21.10
2018-09-06T00:36:55.589Z,18.50
2018-09-06T00:37:55.570Z,20.60
2018-09-06T00:38:55.585Z,20.30
2018-09-06T00:39:55.552Z,19.10
2018-09-06T00:40:55.541Z,18.30
2018-09-06T00:41:55.549Z,19.10
2018-09-06T00:42:55.525Z,20.30
2018-09-06T00:43:55.549Z,18.80
2018-09-06T00:44:55.500Z,20.20
2018-09-06T00:45:55.488Z,21.00
2018-09-06T00:46:55.499Z,19.70
2018-09-06T00:47:55.502Z,19.60
2018-09-06T00:48:55.498Z,16.20
2018-09-06T00:49:55.447Z,19.10
2018-09-06T00:50:55.433Z,19.50
2018-09-06T00:51:55.430Z,19.70
2018-09-06T00:52:55.417Z,20.30
2018-09-06T00:53:55.440Z,20.10
2018-09-06T00:54:55.422Z,19.50
2018-09-06T00:55:55.381Z,19.30
2018-09-06T00:56:55.371Z,18.80
2018-09-06T00:57:55.375Z,17.00
2018-09-06T00:58:55.349Z,19.60
2018-09-06T00:59:55.369Z,19.80
2018-09-06T01:00:55.330Z,19.40
2018-09-06T01:01:55.320Z,22.50
2018-09-06T01:02:55.308Z,19.30
2018-09-06T01:03:55.300Z,20.00
2018-09-06T01:04:55.290Z,19.20
2018-09-06T01:05:55.298Z,20.50
2018-09-06T01:06:55.294Z,18.20
2018-09-06T01:07:55.259Z,18.30
2018-09-06T01:08:55.244Z,18.60
2018-09-06T01:09:55.233Z,21.20
2018-09-06T01:10:55.254Z,19.40
2018-09-06T01:11:55.215Z,18.50
2018-09-06T01:12:55.204Z,19.30
2018-09-06T01:13:55.192Z,21.00
2018-09-06T01:14:55.182Z,20.90
2018-09-06T01:15:55.200Z,23.30
2018-09-06T01:16:55.174Z,23.00
2018-09-06T01:17:55.150Z,21.30
2018-09-06T01:18:55.149Z,23.50
2018-09-06T01:19:55.133Z,20.10
2018-09-06T01:20:55.124Z,21.90
2018-09-06T01:21:55.131Z,25.30
2018-09-06T01:22:55.108Z,19.50
2018-09-06T01:23:55.085Z,22.50
2018-09-06T01:24:55.074Z,27.00
2018-09-06T01:25:55.069Z,31.50
2018-09-06T01:26:55.090Z,27.80
2018-09-06T01:27:55.047Z,29.80
2018-09-06T01:28:55.033Z,27.50
2018-09-06T01:29:55.026Z,31.10
2018-09-06T01:30:55.023Z,30.10
2018-09-06T01:31:55.008Z,33.30
2018-09-06T01:32:55.022Z,30.00
2018-09-06T01:33:54.989Z,33.10
2018-09-06T01:34:54.969Z,30.90
2018-09-06T01:35:54.964Z,28.80
2018-09-06T01:36:54.988Z,32.70
2018-09-06T01:37:54.960Z,34.30
2018-09-06T01:38:54.926Z,32.40
2018-09-06T01:39:54.917Z,30.30
2018-09-06T01:40:54.912Z,31.80
2018-09-06T01:41:54.893Z,33.80
2018-09-06T01:42:54.908Z,34.10
2018-09-06T01:43:54.875Z,31.50
2018-09-06T01:44:54.879Z,28.10
2018-09-06T01:45:54.854Z,30.80
2018-09-06T01:46:54.850Z,28.60
2018-09-06T01:47:54.859Z,30.10
2018-09-06T01:48:54.822Z,24.70
2018-09-06T01:49:54.812Z,27.40
2018-09-06T01:50:54.799Z,28.10
2018-09-06T01:51:54.789Z,26.20
2018-09-06T01:52:54.808Z,26.50
2018-09-06T01:53:54.778Z,26.90
2018-09-06T01:54:54.756Z,25.10
2018-09-06T01:55:54.745Z,28.50
2018-09-06T01:56:54.737Z,23.70
2018-09-06T01:57:54.726Z,28.90
2018-09-06T01:58:54.753Z,29.20
2018-09-06T01:59:54.706Z,30.50
2018-09-06T02:00:54.702Z,34.60
2018-09-06T02:01:54.683Z,33.90
2018-09-06T02:02:54.674Z,30.90
2018-09-06T02:03:54.699Z,32.50
2018-09-06T02:04:54.656Z,31.10
2018-09-06T02:05:54.641Z,32.40
2018-09-06T02:06:54.632Z,30.50
2018-09-06T02:07:54.644Z,33.70
2018-09-06T02:08:54.629Z,31.80
2018-09-06T02:09:54.629Z,38.50
2018-09-06T02:10:54.607Z,34.80
2018-09-06T02:11:54.577Z,32.20
2018-09-06T02:12:54.568Z,38.00
2018-09-06T02:13:54.557Z,36.10
2018-09-06T02:14:54.591Z,32.90
2018-09-06T02:15:54.547Z,36.90
2018-09-06T02:16:54.527Z,38.10
2018-09-06T02:17:54.519Z,36.80
2018-09-06T02:18:54.520Z,33.00
2018-09-06T02:19:54.492Z,31.60
2018-09-06T02:20:54.517Z,35.00
2018-09-06T02:21:54.472Z,30.50
2018-09-06T02:22:54.461Z,28.60
2018-09-06T02:23:54.482Z,32.60
2018-09-06T02:24:54.444Z,30.80
2018-09-06T02:25:54.455Z,33.70
2018-09-06T02:26:54.419Z,31.10
2018-09-06T02:27:54.410Z,33.10
2018-09-06T02:28:54.431Z,36.70
2018-09-06T02:29:54.406Z,37.50
2018-09-06T02:30:54.413Z,34.90
2018-09-06T02:31:54.367Z,34.60
2018-09-06T02:32:54.357Z,36.50
2018-09-06T02:33:54.346Z,39.10
2018-09-06T02:34:54.339Z,34.40
2018-09-06T02:35:54.337Z,35.00
2018-09-06T02:36:54.344Z,36.90
2018-09-06T02:37:54.306Z,34.50
2018-09-06T02:38:54.294Z,34.30
2018-09-06T02:39:54.288Z,37.50
2018-09-06T02:40:54.301Z,33.40
2018-09-06T02:41:54.264Z,30.30
2018-09-06T02:42:54.300Z,31.70
2018-09-06T02:43:54.244Z,30.30
2018-09-06T02:44:54.258Z,30.80
2018-09-06T02:45:54.224Z,36.10
2018-09-06T02:46:54.210Z,30.70
2018-09-06T02:47:54.227Z,31.60
2018-09-06T02:48:54.204Z,35.90
2018-09-06T02:49:54.183Z,32.10
2018-09-06T02:50:54.168Z,31.30
2018-09-06T02:51:54.177Z,34.00
2018-09-06T02:52:54.194Z,38.10
2018-09-06T02:53:54.145Z,36.50
2018-09-06T02:54:54.125Z,41.00
2018-09-06T02:55:54.124Z,38.70
2018-09-06T02:56:54.116Z,41.60
2018-09-06T02:57:54.105Z,47.30
2018-09-06T02:58:54.112Z,54.00
2018-09-06T02:59:54.072Z,66.00
2018-09-06T03:00:54.062Z,71.20
2018-09-06T03:01:54.064Z,65.80
2018-09-06T03:02:54.047Z,68.30
2018-09-06T03:03:54.054Z,68.00
2018-09-06T03:04:54.082Z,61.60
2018-09-06T03:05:54.006Z,63.70
2018-09-06T03:06:54.013Z,63.40
2018-09-06T03:07:53.998Z,65.80
2018-09-06T03:08:54.008Z,59.90
2018-09-06T03:09:53.984Z,58.70
2018-09-06T03:10:53.956Z,65.60
2018-09-06T03:11:53.947Z,60.60
2018-09-06T03:12:53.932Z,65.90
2018-09-06T03:13:53.946Z,66.90
2018-09-06T03:14:53.911Z,60.70
2018-09-06T03:15:53.899Z,58.80
2018-09-06T03:16:53.914Z,63.60
2018-09-06T03:17:53.883Z,60.70
2018-09-06T03:18:53.895Z,62.40
2018-09-06T03:19:53.884Z,60.60
2018-09-06T03:20:53.845Z,56.50
2018-09-06T03:21:53.839Z,58.10
2018-09-06T03:22:53.827Z,60.00
2018-09-06T03:23:53.849Z,60.00
2018-09-06T03:24:53.807Z,54.30
2018-09-06T03:25:53.795Z,60.20
2018-09-06T03:26:53.789Z,62.90
2018-09-06T03:27:53.775Z,65.10
2018-09-06T03:28:53.760Z,71.10
2018-09-06T03:29:53.777Z,65.30
2018-09-06T03:30:53.738Z,68.60
2018-09-06T03:31:53.737Z,67.50
2018-09-06T03:32:53.717Z,68.10
2018-09-06T03:33:53.710Z,67.00
2018-09-06T03:34:53.728Z,62.10
2018-09-06T03:35:53.698Z,64.00
2018-09-06T03:36:53.677Z,65.80
2018-09-06T03:37:53.665Z,67.30
2018-09-06T03:38:53.665Z,61.50
2018-09-06T03:39:53.645Z,64.60
2018-09-06T03:40:53.659Z,68.10
2018-09-06T03:41:53.622Z,64.30
2018-09-06T03:42:53.612Z,68.50
2018-09-06T03:43:53.602Z,62.80
2018-09-06T03:44:53.590Z,66.10
2018-09-06T03:45:53.607Z,69.60
2018-09-06T03:46:53.574Z,65.90
2018-09-06T03:47:53.558Z,72.60
2018-09-06T03:48:53.547Z,67.90
2018-09-06T03:49:53.542Z,70.60
2018-09-06T03:50:53.530Z,69.80
2018-09-06T03:51:53.546Z,71.80
2018-09-06T03:52:53.504Z,62.20
2018-09-06T03:53:53.511Z,70.60
2018-09-06T03:54:53.483Z,65.80
2018-09-06T03:55:53.492Z,67.80
2018-09-06T03:56:53.494Z,60.60
2018-09-06T03:57:53.448Z,66.40
2018-09-06T03:58:53.439Z,67.50
2018-09-06T03:59:53.426Z,65.70
2018-09-06T04:00:53.427Z,62.70
2018-09-06T04:01:53.416Z,62.30
2018-09-06T04:02:53.422Z,61.80
2018-09-06T04:03:53.390Z,69.00
2018-09-06T04:04:53.372Z,67.90
2018-09-06T04:05:53.363Z,65.70
2018-09-06T04:06:53.351Z,62.30
2018-09-06T04:07:53.472Z,63.60
2018-09-06T04:08:53.329Z,59.30
2018-09-06T04:09:53.323Z,61.50
2018-09-06T04:10:53.316Z,62.80
2018-09-06T04:11:53.296Z,61.50
2018-09-06T04:12:53.289Z,62.60
2018-09-06T04:13:53.305Z,63.70
2018-09-06T04:14:53.268Z,69.10
2018-09-06T04:15:53.258Z,68.10
2018-09-06T04:16:53.245Z,64.50
2018-09-06T04:17:53.237Z,67.10
2018-09-06T04:18:53.252Z,61.70
2018-09-06T04:19:53.214Z,67.30
2018-09-06T04:20:53.201Z,72.50
2018-09-06T04:21:53.197Z,64.70
2018-09-06T04:22:53.197Z,66.30
2018-09-06T04:23:53.168Z,65.60
2018-09-06T04:24:53.188Z,73.40
2018-09-06T04:25:53.156Z,69.70
2018-09-06T04:26:53.142Z,71.80
2018-09-06T04:27:53.129Z,73.00
2018-09-06T04:28:53.119Z,72.20
2018-09-06T04:29:53.139Z,70.20
2018-09-06T04:30:53.108Z,70.70
2018-09-06T04:31:53.081Z,70.40
2018-09-06T04:32:53.071Z,66.80
2018-09-06T04:33:53.062Z,70.30
2018-09-06T04:34:53.057Z,72.30
2018-09-06T04:35:53.067Z,69.50
2018-09-06T04:36:53.030Z,76.10
2018-09-06T04:37:53.016Z,69.90
2018-09-06T04:38:53.010Z,65.60
2018-09-06T04:39:53.001Z,74.60
2018-09-06T04:40:52.988Z,74.50
2018-09-06T04:41:53.015Z,66.80
2018-09-06T04:42:52.963Z,63.70
2018-09-06T04:43:53.079Z,73.30
2018-09-06T04:44:52.952Z,80.60
2018-09-06T04:45:52.931Z,66.60
2018-09-06T04:46:52.942Z,63.40
2018-09-06T04:47:52.909Z,67.70
2018-09-06T04:48:52.900Z,68.80
2018-09-06T04:49:52.907Z,66.20
2018-09-06T04:50:52.877Z,70.10
2018-09-06T04:51:52.918Z,66.50
2018-09-06T04:52:52.854Z,68.90
2018-09-06T04:53:52.845Z,68.80
2018-09-06T04:54:52.836Z,74.90
2018-09-06T04:55:52.824Z,74.60
2018-09-06T04:56:52.825Z,73.80
2018-09-06T04:57:52.827Z,73.80
2018-09-06T04:58:52.795Z,71.20
2018-09-06T04:59:52.781Z,75.70
2018-09-06T05:00:52.778Z,73.80
2018-09-06T05:01:52.765Z,80.40
2018-09-06T05:02:52.803Z,78.40
2018-09-06T05:03:52.758Z,75.10
2018-09-06T05:04:52.727Z,73.40
2018-09-06T05:05:52.726Z,75.70
2018-09-06T05:06:52.705Z,74.50
2018-09-06T05:07:52.696Z,73.80
2018-09-06T05:08:52.714Z,76.90
2018-09-06T05:09:52.684Z,75.30
2018-09-06T05:10:52.676Z,85.90
2018-09-06T05:11:52.660Z,81.50
2018-09-06T05:12:52.645Z,86.40
2018-09-06T05:13:52.656Z,78.60
2018-09-06T05:14:52.621Z,86.60
2018-09-06T05:15:52.644Z,81.20
2018-09-06T05:16:52.599Z,87.20
2018-09-06T05:17:52.601Z,88.10
2018-09-06T05:18:52.636Z,88.80
2018-09-06T05:19:52.611Z,106.80
2018-09-06T05:20:52.580Z,113.20
2018-09-06T05:21:52.563Z,107.40
2018-09-06T05:22:52.547Z,106.90
2018-09-06T05:23:52.579Z,112.80
2018-09-06T05:24:52.547Z,105.30
2018-09-06T05:25:52.509Z,116.70
2018-09-06T05:26:52.544Z,112.20
2018-09-06T05:27:52.488Z,106.50
2018-09-06T05:28:52.488Z,118.90
2018-09-06T05:29:52.501Z,108.90
2018-09-06T05:30:52.655Z,111.50
2018-09-06T05:31:52.442Z,117.30
2018-09-06T05:32:52.436Z,123.00
2018-09-06T05:33:52.431Z,100.60
2018-09-06T05:34:52.415Z,107.00
2018-09-06T05:35:52.429Z,104.40
2018-09-06T05:36:52.462Z,113.50
2018-09-06T05:37:52.379Z,103.90
2018-09-06T05:38:52.366Z,119.90
2018-09-06T05:39:52.373Z,119.30
2018-09-06T05:40:52.415Z,109.60
2018-09-06T05:41:52.337Z,113.10
2018-09-06T05:42:52.393Z,110.90
2018-09-06T05:43:52.313Z,121.00
2018-09-06T05:44:52.302Z,115.60
2018-09-06T05:45:52.362Z,106.50
2018-09-06T05:46:52.282Z,100.50
2018-09-06T05:47:52.271Z,119.60
2018-09-06T05:48:52.295Z,122.90
2018-09-06T05:49:52.248Z,128.30
2018-09-06T05:50:52.237Z,109.60
2018-09-06T05:51:52.273Z,136.50
2018-09-06T05:52:52.220Z,113.00
2018-09-06T05:53:52.301Z,107.50
2018-09-06T05:54:52.233Z,202.40
2018-09-06T05:55:52.281Z,200.30
2018-09-06T05:56:52.300Z,131.70
2018-09-06T05:57:52.243Z,152.50
2018-09-06T05:58:52.160Z,144.70
2018-09-06T05:59:52.264Z,163.40
2018-09-06T06:00:52.131Z,135.90
2018-09-06T06:01:52.263Z,140.30
2018-09-06T06:02:52.142Z,141.40
2018-09-06T06:03:52.099Z,138.70
2018-09-06T06:04:52.162Z,147.50
2018-09-06T06:05:52.080Z,139.90
2018-09-06T06:06:52.158Z,142.40
2018-09-06T06:07:52.092Z,141.50
2018-09-06T06:08:52.047Z,143.40
2018-09-06T06:09:52.036Z,153.70
2018-09-06T06:10:52.027Z,141.10
2018-09-06T06:11:52.155Z,119.20
2018-09-06T06:12:52.003Z,129.40
2018-09-06T06:13:52.051Z,116.20
2018-09-06T06:14:51.982Z,119.30
2018-09-06T06:15:52.000Z,123.40
2018-09-06T06:16:52.064Z,120.70
2018-09-06T06:17:51.977Z,119.30
2018-09-06T06:18:52.059Z,117.70
2018-09-06T06:19:51.939Z,124.80
2018-09-06T06:20:51.917Z,138.20
2018-09-06T06:21:51.920Z,137.90
2018-09-06T06:22:51.917Z,127.90
2018-09-06T06:23:51.912Z,117.80
2018-09-06T06:24:51.875Z,136.60
2018-09-06T06:25:52.069Z,131.90
2018-09-06T06:26:51.855Z,139.50
2018-09-06T06:27:51.849Z,147.80
2018-09-06T06:28:51.860Z,145.00
2018-09-06T06:29:51.874Z,156.20
2018-09-06T06:30:51.810Z,162.00
2018-09-06T06:31:51.823Z,128.60
2018-09-06T06:32:51.914Z,153.30
2018-09-06T06:33:51.827Z,141.60
2018-09-06T06:34:51.805Z,170.00
2018-09-06T06:35:51.785Z,157.30
2018-09-06T06:36:51.760Z,153.30
2018-09-06T06:37:51.742Z,148.90
2018-09-06T06:38:51.748Z,154.50
2018-09-06T06:39:51.779Z,155.20
2018-09-06T06:40:51.732Z,163.70
2018-09-06T06:41:51.710Z,162.90
2018-09-06T06:42:51.719Z,143.40
2018-09-06T06:43:51.766Z,153.20
2018-09-06T06:44:51.667Z,182.00
2018-09-06T06:45:51.685Z,173.80
2018-09-06T06:46:51.672Z,155.20
2018-09-06T06:47:51.625Z,205.50
2018-09-06T06:48:51.854Z,284.60
2018-09-06T06:49:51.610Z,225.50
2018-09-06T06:50:51.619Z,160.40
2018-09-06T06:51:51.615Z,198.70
2018-09-06T06:52:51.728Z,191.90
2018-09-06T06:53:51.583Z,181.10
2018-09-06T06:54:51.574Z,190.70
2018-09-06T06:55:51.699Z,201.20
2018-09-06T06:56:51.605Z,157.40
2018-09-06T06:57:51.527Z,211.20
2018-09-06T06:58:51.511Z,162.10
2018-09-06T06:59:51.546Z,172.30
2018-09-06T07:00:51.528Z,158.60
2018-09-06T07:01:51.510Z,148.90
2018-09-06T07:02:51.478Z,158.60
2018-09-06T07:03:51.468Z,159.80
2018-09-06T07:04:51.455Z,124.40
2018-09-06T07:05:51.435Z,126.40
2018-09-06T07:06:51.542Z,120.30
2018-09-06T07:07:51.438Z,111.50
2018-09-06T07:08:51.408Z,107.60
2018-09-06T07:09:51.406Z,132.40
2018-09-06T07:10:51.384Z,98.30
2018-09-06T07:11:51.394Z,99.40
2018-09-06T07:12:51.405Z,108.90
2018-09-06T07:13:51.347Z,98.50
2018-09-06T07:14:51.343Z,109.40
2018-09-06T07:15:51.328Z,100.10
2018-09-06T07:16:51.339Z,94.50
2018-09-06T07:17:51.304Z,87.60
2018-09-06T07:18:51.405Z,105.10
2018-09-06T07:19:51.282Z,99.80
2018-09-06T07:20:51.273Z,94.50
2018-09-06T07:21:51.260Z,96.90
2018-09-06T07:22:51.279Z,86.40
2018-09-06T07:23:51.266Z,79.80
2018-09-06T07:24:51.231Z,77.70
2018-09-06T07:25:51.217Z,80.60
2018-09-06T07:26:51.209Z,78.90
2018-09-06T07:27:51.200Z,77.70
2018-09-06T07:28:51.229Z,86.30
2018-09-06T07:29:51.193Z,88.20
2018-09-06T07:30:51.163Z,79.10
2018-09-06T07:31:51.154Z,62.30
2018-09-06T07:32:51.142Z,64.30
2018-09-06T07:33:51.131Z,70.60
2018-09-06T07:34:51.142Z,71.40
2018-09-06T07:35:51.116Z,83.40
2018-09-06T07:36:51.098Z,71.30
2018-09-06T07:37:51.089Z,76.80
2018-09-06T07:38:51.078Z,87.10
2018-09-06T07:39:51.102Z,78.30
2018-09-06T07:40:51.066Z,75.20
2018-09-06T07:41:51.043Z,75.50
2018-09-06T07:42:51.039Z,76.90
2018-09-06T07:43:51.151Z,73.10
2018-09-06T07:44:51.013Z,67.40
2018-09-06T07:45:51.041Z,72.20
2018-09-06T07:46:51.012Z,65.90
2018-09-06T07:47:50.990Z,66.80
2018-09-06T07:48:50.969Z,69.50
2018-09-06T07:49:50.976Z,64.70
2018-09-06T07:50:50.986Z,60.40
2018-09-06T07:51:50.938Z,58.10
2018-09-06T07:52:50.931Z,70.60
2018-09-06T07:53:50.918Z,64.20
2018-09-06T07:54:50.900Z,56.30
2018-09-06T07:55:50.921Z,56.90
2018-09-06T07:56:50.890Z,61.70
2018-09-06T07:57:50.885Z,56.00
2018-09-06T07:58:50.860Z,63.60
2018-09-06T07:59:50.988Z,57.70
2018-09-06T08:00:50.866Z,59.80
2018-09-06T08:01:50.949Z,54.80
2018-09-06T08:02:50.816Z,49.60
2018-09-06T08:03:50.807Z,47.70
2018-09-06T08:04:50.796Z,47.90
2018-09-06T08:05:50.976Z,46.70
2018-09-06T08:06:50.775Z,45.50
2018-09-06T08:07:50.765Z,42.90
2018-09-06T08:08:50.751Z,42.40
2018-09-06T08:09:50.740Z,42.70
2018-09-06T08:10:50.753Z,46.40
2018-09-06T08:11:50.718Z,44.10
2018-09-06T08:12:50.708Z,46.20
2018-09-06T08:13:50.696Z,45.70
2018-09-06T08:14:50.702Z,42.70
2018-09-06T08:15:50.711Z,44.50
2018-09-06T08:16:50.665Z,46.00
2018-09-06T08:17:50.657Z,49.60
2018-09-06T08:18:50.813Z,47.90
2018-09-06T08:19:50.638Z,52.50
2018-09-06T08:20:50.649Z,50.30
2018-09-06T08:21:50.644Z,48.70
2018-09-06T08:22:50.751Z,44.30
2018-09-06T08:23:50.590Z,44.80
2018-09-06T08:24:50.581Z,48.60
2018-09-06T08:25:50.570Z,40.50
2018-09-06T08:26:50.661Z,43.50
2018-09-06T08:27:50.668Z,43.50
2018-09-06T08:28:50.622Z,42.00
2018-09-06T08:29:50.679Z,45.30
2018-09-06T08:30:50.791Z,44.40
2018-09-06T08:31:50.531Z,43.90
2018-09-06T08:32:50.492Z,43.50
2018-09-06T08:33:50.496Z,43.40
2018-09-06T08:34:50.472Z,43.20
2018-09-06T08:35:50.483Z,45.50
2018-09-06T08:36:50.495Z,43.50
2018-09-06T08:37:50.520Z,47.10
2018-09-06T08:38:50.431Z,46.40
2018-09-06T08:39:50.565Z,45.60
2018-09-06T08:40:50.501Z,47.20
2018-09-06T08:41:50.396Z,43.80
2018-09-06T08:42:50.419Z,44.30
2018-09-06T08:43:50.380Z,41.60
2018-09-06T08:44:50.384Z,45.60
2018-09-06T08:45:50.356Z,39.20
2018-09-06T08:46:50.358Z,43.20
2018-09-06T08:47:50.334Z,45.80
2018-09-06T08:48:50.462Z,45.30
2018-09-06T08:49:50.311Z,41.80
2018-09-06T08:50:50.434Z,38.60
2018-09-06T08:51:50.377Z,34.20
2018-09-06T08:52:50.279Z,37.20
2018-09-06T08:53:50.407Z,32.60
2018-09-06T08:54:50.258Z,34.60
2018-09-06T08:55:50.252Z,34.40
2018-09-06T08:56:50.237Z,37.00
2018-09-06T08:57:50.231Z,33.60
2018-09-06T08:58:50.251Z,35.50
2018-09-06T08:59:50.344Z,36.00
2018-09-06T09:00:50.193Z,37.50
2018-09-06T09:01:50.185Z,36.50
2018-09-06T09:02:50.267Z,34.30
2018-09-06T09:03:50.214Z,34.40
2018-09-06T09:04:50.282Z,34.20
2018-09-06T09:05:50.252Z,34.70
2018-09-06T09:06:50.135Z,41.50
2018-09-06T09:07:50.121Z,38.70
2018-09-06T09:08:50.137Z,39.40
2018-09-06T09:09:50.124Z,36.80
2018-09-06T09:10:50.100Z,39.00
2018-09-06T09:11:50.077Z,35.80
2018-09-06T09:12:50.180Z,37.30
2018-09-06T09:13:50.055Z,36.70
2018-09-06T09:14:50.073Z,39.80
2018-09-06T09:15:50.035Z,37.00
2018-09-06T09:16:50.041Z,39.70
2018-09-06T09:17:50.013Z,37.20
2018-09-06T09:18:50.032Z,38.60
2018-09-06T09:19:50.018Z,36.60
2018-09-06T09:20:49.982Z,35.10
2018-09-06T09:21:50.007Z,39.60
2018-09-06T09:22:49.960Z,34.70
2018-09-06T09:23:49.963Z,36.90
2018-09-06T09:24:49.967Z,36.60
2018-09-06T09:25:49.942Z,36.30
2018-09-06T09:26:49.928Z,34.80
2018-09-06T09:27:50.058Z,34.40
2018-09-06T09:28:50.011Z,36.90
2018-09-06T09:29:49.887Z,31.50
2018-09-06T09:30:49.900Z,35.10
2018-09-06T09:31:49.868Z,35.30
2018-09-06T09:32:50.023Z,34.20
2018-09-06T09:33:49.971Z,36.80
2018-09-06T09:34:49.832Z,36.20
2018-09-06T09:35:49.956Z,32.80
2018-09-06T09:36:49.816Z,34.90
2018-09-06T09:37:49.802Z,30.90
2018-09-06T09:38:49.928Z,31.40
2018-09-06T09:39:49.778Z,28.80
2018-09-06T09:40:49.798Z,32.80
2018-09-06T09:41:49.760Z,33.00
2018-09-06T09:42:49.872Z,33.90
2018-09-06T09:43:49.734Z,28.80
2018-09-06T09:44:49.724Z,29.60
2018-09-06T09:45:49.714Z,32.40
2018-09-06T09:47:49.371Z,30.10
2018-09-06T09:48:49.357Z,29.50
2018-09-06T09:49:49.359Z,29.30
2018-09-06T09:50:49.334Z,30.00
2018-09-06T09:51:49.324Z,28.00
2018-09-06T09:52:49.336Z,29.90
2018-09-06T09:53:49.302Z,27.70
2018-09-06T09:54:49.336Z,31.20
2018-09-06T09:55:49.294Z,27.40
2018-09-06T09:56:49.299Z,25.20
2018-09-06T09:57:49.286Z,27.60
2018-09-06T09:58:49.248Z,21.80
2018-09-06T09:59:49.237Z,23.10
2018-09-06T10:00:49.232Z,21.60
2018-09-06T10:01:49.268Z,19.60
2018-09-06T10:02:49.205Z,21.10
2018-09-06T10:04:18.539Z,22.30
2018-09-06T10:05:18.521Z,19.90
2018-09-06T10:06:18.543Z,21.30
2018-09-06T10:07:18.499Z,21.00
2018-09-06T10:08:18.513Z,20.70
2018-09-06T10:09:18.478Z,24.50
2018-09-06T10:10:18.469Z,24.40
2018-09-06T10:11:18.457Z,22.90
2018-09-06T10:12:18.447Z,22.90
2018-09-06T10:13:18.463Z,25.00
2018-09-06T10:14:18.424Z,23.00
2018-09-06T10:15:18.415Z,23.90
2018-09-06T10:16:18.409Z,23.30
2018-09-06T10:17:18.546Z,25.50
2018-09-06T10:18:18.523Z,23.20
2018-09-06T10:19:18.431Z,23.20
2018-09-06T10:20:18.454Z,23.00
2018-09-06T10:21:18.350Z,22.60
2018-09-06T10:22:18.338Z,24.70
2018-09-06T10:23:18.328Z,23.10
2018-09-06T10:24:18.345Z,24.60
2018-09-06T10:25:18.315Z,24.50
2018-09-06T10:26:18.295Z,23.40
2018-09-06T10:27:18.284Z,25.60
2018-09-06T10:28:18.277Z,24.50
2018-09-06T10:29:18.294Z,23.50
2018-09-06T10:30:18.278Z,25.30
2018-09-06T10:31:18.261Z,25.40
2018-09-06T10:32:18.229Z,27.00
2018-09-06T10:33:18.224Z,28.20
2018-09-06T10:34:18.210Z,27.60
2018-09-06T10:35:18.230Z,28.50
2018-09-06T10:36:18.222Z,30.60
2018-09-06T10:37:18.177Z,29.40
2018-09-06T10:38:18.166Z,27.70
2018-09-06T10:39:18.235Z,30.20
2018-09-06T10:40:18.171Z,30.30
2018-09-06T10:41:18.135Z,27.00
2018-09-06T10:42:18.123Z,28.00
2018-09-06T10:43:18.158Z,28.90
2018-09-06T10:44:18.108Z,30.90
2018-09-06T10:45:18.124Z,25.10
2018-09-06T10:46:18.086Z,28.60
2018-09-06T10:47:18.073Z,27.20
2018-09-06T10:48:18.068Z,28.00
2018-09-06T10:49:18.058Z,28.60
2018-09-06T10:50:18.039Z,30.40
2018-09-06T10:51:18.054Z,29.80
2018-09-06T10:52:18.024Z,31.40
2018-09-06T10:53:18.010Z,29.30
2018-09-06T10:54:17.995Z,29.90
2018-09-06T10:55:17.987Z,29.00
2018-09-06T10:56:18.027Z,29.80
2018-09-06T10:57:17.974Z,28.70
2018-09-06T10:58:17.960Z,30.70
2018-09-06T10:59:17.942Z,29.80
2018-09-06T11:00:17.931Z,27.60
2018-09-06T11:01:17.937Z,27.70
2018-09-06T11:02:17.934Z,30.30
2018-09-06T11:03:17.899Z,31.50
2018-09-06T11:04:17.894Z,27.90
2018-09-06T11:05:17.884Z,32.00
2018-09-06T11:06:17.867Z,30.40
2018-09-06T11:07:17.892Z,29.30
2018-09-06T11:08:17.885Z,33.00
2018-09-06T11:09:17.836Z,31.00
2018-09-06T11:10:17.831Z,28.60
2018-09-06T11:11:17.816Z,29.10
2018-09-06T11:12:17.811Z,32.00
2018-09-06T11:13:17.816Z,31.30
2018-09-06T11:14:17.815Z,30.80
2018-09-06T11:15:17.771Z,30.70
2018-09-06T11:16:17.765Z,31.20
2018-09-06T11:17:17.751Z,30.60
2018-09-06T11:18:17.768Z,29.30
2018-09-06T11:19:17.731Z,30.40
2018-09-06T11:20:17.718Z,31.20
2018-09-06T11:21:17.839Z,33.80
2018-09-06T11:22:17.854Z,34.00
2018-09-06T11:23:17.689Z,32.50
2018-09-06T11:24:17.700Z,34.20
2018-09-06T11:25:17.668Z,34.00
2018-09-06T11:26:17.660Z,35.00
2018-09-06T11:27:17.663Z,35.30
2018-09-06T11:28:17.630Z,33.70
2018-09-06T11:29:17.650Z,37.30
2018-09-06T11:30:17.611Z,33.40
2018-09-06T11:31:17.599Z,35.90
2018-09-06T11:32:17.604Z,30.90
2018-09-06T11:33:17.585Z,32.90
2018-09-06T11:34:17.612Z,34.50
2018-09-06T11:35:17.581Z,33.30
2018-09-06T11:36:17.545Z,34.70
2018-09-06T11:37:17.534Z,34.20
2018-09-06T11:38:17.523Z,35.90
2018-09-06T11:39:17.548Z,36.70
2018-09-06T11:40:17.524Z,33.00
2018-09-06T11:41:17.492Z,36.00
2018-09-06T11:42:17.481Z,35.00
2018-09-06T11:43:17.475Z,42.40
2018-09-06T11:44:17.473Z,35.40
2018-09-06T11:45:17.479Z,36.70
2018-09-06T11:46:17.478Z,39.00
2018-09-06T11:47:17.490Z,36.40
2018-09-06T11:48:17.436Z,36.60
2018-09-06T11:49:17.423Z,36.60
2018-09-06T11:50:17.447Z,35.60
2018-09-06T11:51:17.385Z,35.50
2018-09-06T11:52:17.397Z,34.90
2018-09-06T11:53:17.375Z,35.60
2018-09-06T11:54:17.357Z,35.90
2018-09-06T11:55:17.370Z,34.10
2018-09-06T11:56:17.406Z,35.30
2018-09-06T11:57:17.336Z,34.70
2018-09-06T11:58:17.342Z,35.80
2018-09-06T11:59:17.299Z,36.60
2018-09-06T12:00:17.288Z,34.60
2018-09-06T12:01:17.305Z,40.00
2018-09-06T12:02:17.435Z,36.40
2018-09-06T12:03:17.256Z,37.00
2018-09-06T12:04:17.246Z,37.70
2018-09-06T12:05:17.243Z,35.50
2018-09-06T12:06:17.325Z,37.00
2018-09-06T12:07:17.227Z,39.70
2018-09-06T12:08:17.215Z,36.20
2018-09-06T12:09:17.191Z,42.60
2018-09-06T12:10:17.180Z,41.80
2018-09-06T12:11:17.211Z,39.80
2018-09-06T12:12:17.163Z,38.80
2018-09-06T12:13:17.153Z,38.10
2018-09-06T12:14:17.150Z,38.60
2018-09-06T12:15:17.127Z,38.90
2018-09-06T12:16:17.119Z,40.70
2018-09-06T12:17:17.131Z,40.80
2018-09-06T12:18:17.096Z,37.00
2018-09-06T12:19:17.093Z,34.80
2018-09-06T12:20:17.075Z,38.00
2018-09-06T12:21:17.066Z,38.60
2018-09-06T12:22:17.079Z,41.40
2018-09-06T12:23:17.044Z,40.20
2018-09-06T12:24:17.040Z,39.90
2018-09-06T12:25:17.077Z,38.60
2018-09-06T12:26:17.011Z,44.00
2018-09-06T12:27:17.028Z,36.80
2018-09-06T12:28:17.020Z,39.00
2018-09-06T12:29:16.979Z,38.00
2018-09-06T12:30:16.967Z,37.80
2018-09-06T12:31:16.960Z,40.30
2018-09-06T12:32:16.981Z,40.00
2018-09-06T12:33:17.050Z,39.60
2018-09-06T12:34:16.927Z,38.10
2018-09-06T12:35:16.918Z,42.00
2018-09-06T12:36:16.912Z,40.70
2018-09-06T12:37:16.918Z,37.70
2018-09-06T12:38:16.882Z,40.20
2018-09-06T12:39:16.877Z,39.20
2018-09-06T12:40:16.863Z,39.80
2018-09-06T12:41:16.851Z,42.10
2018-09-06T12:42:16.872Z,41.10
2018-09-06T12:43:16.828Z,40.00
2018-09-06T12:44:16.819Z,41.90
2018-09-06T12:45:16.806Z,40.50
2018-09-06T12:46:16.804Z,39.60
2018-09-06T12:47:16.817Z,45.90
2018-09-06T12:48:16.780Z,41.20
2018-09-06T12:49:16.769Z,41.20
2018-09-06T12:50:16.774Z,41.40